Thursday, April 17, 2014
06:59 UTC
  |  Log In   |  Register Free
Airport Search:

Hobart Regional Airport
(KHBR)

Hobart Regional Airport Diagram
No Airport Diagram Available

FAA data valid effective April 3, 2014 until May 29, 2014 (unless otherwise noted).

 
 
 
 
 
 
 
 
 
 
 
 
 
 

Current Aviation Weather for Hobart Regional Airport (KHBR)

The most recent METAR observation for KHBR was updated at: 0553 UTC
METAR Summary (Translated METAR)
KHBR
170553Z AUTO 13013KT 10SM CLR 13/05 A3000 RMK AO2 SLP151 T01330050 10217 20094 402330072 51023
KLTS
(23.1 nm SW from KHBR)
170558Z 10015KT 10SM CLR 13/05 A2997 RMK AO2A SLP143 T01300051 10226 20129 402390058 52022 $
TAF Summary (Translated TAF)
KHBR
170520Z 1706/1806 12010KT P6SM SKC FM171400 07012KT 5SM -RA SCT015 BKN025 FM171900 03011KT P6SM BKN015 OVC025 FM180100 08006KT P6SM BKN050
KLTS
(23.1 nm SW from KHBR)
1701/1807 12010G15KT 9999 SKC QNH2983INS BECMG 1711/1712 12009KT 9999 BKN005 BKN020 QNH2996INS BECMG 1714/1715 04009KT 9999 OVC020 QNH3003INS BECMG 1717/1718 03012G18KT 9000 -SHRA OVC015 QNH3016INS TEMPO 1718/1724 OVC010 BECMG 1802/1803 05009KT 9999 NSW BKN007 OVC020 QNH3020INS TX20/1701Z TN06/1712Z
  Airport Weather Conditions for KHBR

 Current Weather at HBR
56° F
Fair
Southeast winds at 15.0 mph
HBR NOAA Radar

Pressure: 30.00 in
Humidity: 57%
Wind: Southeast at 15.0 MPH (13 KT)
Dew Point: 41.0°F
Visibility: 10.00 mi


Airport Weather Forecast for KHBR

Translated METAR and TAF for KHBR
Translated METAR for KHBR (0659 UTC 17 April 2014)
found at http://aviationweather.gov/adds/metars/
 
METAR text: KHBR 170653Z AUTO 13010KT 10SM CLR 12/06 A3002 RMK AO2 SLP155 T01220056
Conditions at: KHBR (HOBART , OK, US) observed 0653 UTC 17 April 2014
Temperature: 12.2°C (54°F)
Dewpoint: 5.6°C (42°F) [RH = 64%]
Pressure (altimeter): 30.02 inches Hg (1016.7 mb)
[Sea-level pressure: 1015.5 mb]
Winds: from the SE (130 degrees) at 12 MPH (10 knots; 5.2 m/s)
Visibility: 10 or more miles (16+ km)
Ceiling: at least 12,000 feet AGL
Clouds: sky clear below 12,000 feet AGL
Weather: automated observation with no human augmentation;
there may or may not be significant weather present at this time
Translated TAF for KHBR
Forecast for: KHBR (HOBART , OK, US)
TAF Text: KHBR 170520Z 1706/1806 12010KT P6SM SKC
Forecast period: 0600 to 1400 UTC 17 April 2014
Forecast type: FROM: standard forecast or significant change
Winds: from the ESE (120 degrees) at 12 MPH (10 knots; 5.2 m/s)
Visibility: 6 or more miles (10+ km)
Clouds: clear skies
Weather: no significant weather forecast for this period
TAF Text: FM171400 07012KT 5SM -RA SCT015 BKN025
Forecast period: 1400 to 1900 UTC 17 April 2014
Forecast type: FROM: standard forecast or significant change
Winds: from the ENE (70 degrees) at 14 MPH (12 knots; 6.2 m/s)
Visibility: 5 miles (8 km)
Ceiling: 2500 feet AGL
Clouds: scattered clouds at 1500 feet AGL
broken clouds at 2500 feet AGL
Weather: -RA  (light rain)
TAF Text: FM171900 03011KT P6SM BKN015 OVC025
Forecast period: 1900 UTC 17 April 2014 to 0100 UTC 18 April 2014
Forecast type: FROM: standard forecast or significant change
Winds: from the NNE (30 degrees) at 13 MPH (11 knots; 5.7 m/s)
Visibility: 6 or more miles (10+ km)
Ceiling: 1500 feet AGL
Clouds: broken clouds at 1500 feet AGL
overcast cloud deck at 2500 feet AGL
Weather: no significant weather forecast for this period
TAF Text: FM180100 08006KT P6SM BKN050
Forecast period: 0100 to 0600 UTC 18 April 2014
Forecast type: FROM: standard forecast or significant change
Winds: from the E (80 degrees) at 7 MPH (6 knots; 3.1 m/s)
Visibility: 6 or more miles (10+ km)
Ceiling: 5000 feet AGL
Clouds: broken clouds at 5000 feet AGL
Weather: no significant weather forecast for this period

Find All Airport Services Find A Hotel Find A Rental Car Find A Golf Course Find A Restaurant $100 Hamburger



FBO's on the Field
FBO Company Facility Photos Services Transportation Aviation Fuel Prices: Prices include tax
Catering Weather Repair Courtesy Rental Type 100LL JetA JetA+ MOGAS 8087
 
City of Hobart

Currently rated 2.8 by 1 person
FS:Phillips66
Last Updated: Mar-21
Login to update fuel prices
SS:
Contact City of HobartMore FBO Information
 
Add another FBO Facility Photos Catering Weather Repair Courtesy Rental Type 100LL JetA JetA+ MOGAS 8087
Services Transportation Aviation Fuel Prices: Prices include tax


GlobalAir.com Airport Resource Center model-print
model-print
model-print
model-print